createdAt,value
2019-03-16T00:00:47.074Z,95.40
2019-03-16T00:03:14.435Z,95.40
2019-03-16T00:05:41.914Z,95.50
2019-03-16T00:08:09.331Z,95.80
2019-03-16T00:10:36.830Z,96.00
2019-03-16T00:13:04.247Z,95.60
2019-03-16T00:15:31.677Z,95.80
2019-03-16T00:17:59.119Z,95.60
2019-03-16T00:20:26.520Z,95.90
2019-03-16T00:22:53.870Z,96.00
2019-03-16T00:25:21.345Z,96.10
2019-03-16T00:27:48.793Z,96.20
2019-03-16T00:30:35.576Z,96.30
2019-03-16T00:33:02.964Z,96.00
2019-03-16T00:35:30.498Z,96.20
2019-03-16T00:37:57.940Z,96.30
2019-03-16T00:40:25.249Z,96.30
2019-03-16T00:43:12.207Z,96.50
2019-03-16T00:45:39.683Z,96.30
2019-03-16T00:48:07.041Z,96.40
2019-03-16T00:50:34.499Z,96.70
2019-03-16T00:53:01.824Z,96.60
2019-03-16T00:55:29.356Z,96.50
2019-03-16T00:58:16.142Z,96.70
2019-03-16T01:00:43.568Z,96.70
2019-03-16T01:03:11.190Z,96.90
2019-03-16T01:05:38.651Z,97.10
2019-03-16T01:08:05.950Z,97.30
2019-03-16T01:10:33.366Z,97.30
2019-03-16T01:13:00.880Z,97.20
2019-03-16T01:15:47.846Z,97.30
2019-03-16T01:18:15.155Z,97.00
2019-03-16T01:20:42.454Z,97.40
2019-03-16T01:23:09.899Z,97.20
2019-03-16T01:25:56.855Z,97.20
2019-03-16T01:28:24.244Z,96.80
2019-03-16T01:30:51.551Z,97.00
2019-03-16T01:33:18.861Z,97.20
2019-03-16T01:36:05.654Z,97.10
2019-03-16T01:38:32.996Z,96.60
2019-03-16T01:41:00.546Z,96.80
2019-03-16T01:43:47.415Z,96.90
2019-03-16T01:46:14.925Z,97.00
2019-03-16T01:48:42.276Z,96.70
2019-03-16T01:51:09.658Z,96.90
2019-03-16T01:53:36.991Z,97.00
2019-03-16T01:56:04.304Z,96.90
2019-03-16T01:58:51.277Z,96.90
2019-03-16T02:01:18.651Z,96.90
2019-03-16T02:03:46.143Z,97.20
2019-03-16T02:06:13.921Z,97.50
2019-03-16T02:08:41.280Z,97.50
2019-03-16T02:11:08.575Z,97.50
2019-03-16T02:13:36.207Z,97.80
2019-03-16T02:16:10.878Z,98.00
2019-03-16T02:18:32.848Z,97.90
2019-03-16T02:21:00.248Z,98.10
2019-03-16T02:23:27.575Z,98.00
2019-03-16T02:25:54.916Z,98.10
2019-03-16T02:28:22.359Z,98.20
2019-03-16T02:30:49.779Z,98.30
2019-03-16T02:33:17.244Z,98.50
2019-03-16T02:35:44.790Z,98.30
2019-03-16T02:38:12.140Z,98.60
2019-03-16T02:40:39.525Z,98.70
2019-03-16T02:43:07.092Z,98.70
2019-03-16T02:45:34.632Z,98.60
2019-03-16T02:48:01.980Z,98.90
2019-03-16T02:50:29.507Z,99.00
2019-03-16T02:52:56.844Z,99.00
2019-03-16T02:55:24.295Z,99.10
2019-03-16T02:57:51.849Z,99.20
2019-03-16T03:00:19.379Z,99.30
2019-03-16T03:02:46.798Z,99.40
2019-03-16T03:05:14.272Z,99.80
2019-03-16T03:07:41.612Z,99.60
2019-03-16T03:10:09.037Z,99.50
2019-03-16T03:12:55.793Z,99.70
2019-03-16T03:15:23.108Z,99.40
2019-03-16T03:17:50.594Z,99.80
2019-03-16T03:20:17.897Z,99.60
2019-03-16T03:22:45.216Z,99.40
2019-03-16T03:25:12.647Z,99.50
2019-03-16T03:27:59.470Z,99.40
2019-03-16T03:30:46.412Z,99.20
2019-03-16T03:33:13.841Z,99.50
2019-03-16T03:36:00.808Z,99.90
2019-03-16T03:38:28.435Z,99.50
2019-03-16T03:41:15.193Z,99.70
2019-03-16T03:43:42.572Z,99.30
2019-03-16T03:46:32.307Z,99.50
2019-03-16T03:48:58.627Z,99.50
2019-03-16T03:51:26.023Z,99.60
2019-03-16T03:53:53.332Z,99.60
2019-03-16T03:56:20.647Z,99.50
2019-03-16T03:58:48.166Z,99.80
2019-03-16T04:01:34.938Z,99.70
2019-03-16T04:04:14.979Z,99.60
2019-03-16T04:06:31.450Z,99.80
2019-03-16T04:08:58.795Z,99.80
2019-03-16T04:11:26.080Z,99.90
2019-03-16T04:13:53.483Z,99.90
2019-03-16T04:16:40.268Z,99.90
2019-03-16T04:19:07.612Z,99.90
2019-03-16T04:21:35.398Z,99.90
2019-03-16T04:24:02.725Z,99.90
2019-03-16T04:26:30.162Z,99.90
2019-03-16T04:28:57.569Z,99.90
2019-03-16T04:31:44.338Z,99.90
2019-03-16T04:34:11.727Z,99.90
2019-03-16T04:36:39.239Z,99.90
2019-03-16T04:39:06.581Z,99.90
2019-03-16T04:41:53.530Z,99.90
2019-03-16T04:44:21.003Z,99.90
2019-03-16T04:46:48.503Z,99.90
2019-03-16T04:49:35.291Z,99.90
2019-03-16T04:52:02.689Z,99.90
2019-03-16T04:54:30.190Z,99.90
2019-03-16T04:56:57.583Z,99.90
2019-03-16T04:59:46.011Z,99.90
2019-03-16T05:02:13.411Z,99.90
2019-03-16T05:04:42.791Z,99.90
2019-03-16T05:07:10.170Z,99.90
2019-03-16T05:09:37.547Z,99.90
2019-03-16T05:12:05.305Z,99.90
2019-03-16T05:14:32.706Z,99.90
2019-03-16T05:17:00.042Z,99.90
2019-03-16T05:19:27.341Z,99.90
2019-03-16T05:21:54.951Z,99.90
2019-03-16T05:24:22.295Z,99.90
2019-03-16T05:26:49.616Z,99.90
2019-03-16T05:29:17.019Z,99.90
2019-03-16T05:31:44.545Z,99.90
2019-03-16T05:34:32.008Z,99.90
2019-03-16T05:36:59.471Z,99.90
2019-03-16T05:39:26.864Z,99.90
2019-03-16T05:41:54.296Z,99.90
2019-03-16T05:44:21.725Z,99.90
2019-03-16T05:46:49.104Z,99.90
2019-03-16T05:49:16.648Z,99.90
2019-03-16T05:51:44.196Z,99.90
2019-03-16T05:54:11.496Z,99.90
2019-03-16T05:56:38.826Z,99.90
2019-03-16T05:59:06.277Z,99.90
2019-03-16T06:01:33.792Z,99.90
2019-03-16T06:04:01.282Z,99.90
2019-03-16T06:06:48.232Z,99.90
2019-03-16T06:09:16.726Z,99.90
2019-03-16T06:11:44.046Z,99.90
2019-03-16T06:14:11.446Z,99.90
2019-03-16T06:16:43.975Z,99.90
2019-03-16T06:19:16.855Z,99.90
2019-03-16T06:21:44.215Z,99.90
2019-03-16T06:24:18.316Z,99.90
2019-03-16T06:26:45.667Z,99.90
2019-03-16T06:29:13.212Z,99.90
2019-03-16T06:31:59.993Z,99.90
2019-03-16T06:34:27.430Z,99.90
2019-03-16T06:36:54.787Z,99.90
2019-03-16T06:39:22.166Z,99.90
2019-03-16T06:41:49.643Z,99.90
2019-03-16T06:44:17.018Z,99.90
2019-03-16T06:46:44.406Z,99.90
2019-03-16T06:49:31.555Z,99.90
2019-03-16T06:51:58.958Z,99.90
2019-03-16T06:54:26.386Z,99.90
2019-03-16T06:56:53.714Z,99.90
2019-03-16T06:59:21.355Z,99.90
2019-03-16T07:01:49.024Z,99.90
2019-03-16T07:04:16.535Z,99.90
2019-03-16T07:06:44.138Z,99.90
2019-03-16T07:09:25.650Z,99.90
2019-03-16T07:11:52.985Z,99.90
2019-03-16T07:14:24.677Z,99.90
2019-03-16T07:17:01.600Z,99.90
2019-03-16T07:19:24.214Z,99.90
2019-03-16T07:21:51.618Z,99.90
2019-03-16T07:24:19.063Z,99.90
2019-03-16T07:26:46.552Z,99.90
2019-03-16T07:29:14.587Z,99.90
2019-03-16T07:31:42.195Z,99.90
2019-03-16T07:34:12.300Z,99.90
2019-03-16T07:36:39.993Z,99.90
2019-03-16T07:39:07.606Z,99.90
2019-03-16T07:41:35.019Z,99.90
2019-03-16T07:44:02.534Z,99.90
2019-03-16T07:46:30.175Z,99.90
2019-03-16T07:49:16.997Z,99.90
2019-03-16T07:51:44.445Z,99.90
2019-03-16T07:54:11.872Z,99.90
2019-03-16T07:56:39.310Z,99.90
2019-03-16T07:59:26.135Z,99.90
2019-03-16T08:01:53.609Z,99.90
2019-03-16T08:04:21.139Z,99.90
2019-03-16T08:06:49.732Z,99.90
2019-03-16T08:09:17.227Z,99.90
2019-03-16T08:11:44.915Z,99.90
2019-03-16T08:14:12.351Z,99.90
2019-03-16T08:16:59.351Z,99.90
2019-03-16T08:19:26.812Z,99.90
2019-03-16T08:21:54.252Z,99.90
2019-03-16T08:24:41.157Z,99.90
2019-03-16T08:27:08.643Z,99.90
2019-03-16T08:29:36.273Z,99.90
2019-03-16T08:32:03.782Z,99.90
2019-03-16T08:34:31.240Z,99.90
2019-03-16T08:36:58.742Z,99.90
2019-03-16T08:39:26.163Z,99.90
2019-03-16T08:42:13.104Z,99.90
2019-03-16T08:44:40.439Z,99.90
2019-03-16T08:47:07.883Z,99.90
2019-03-16T08:49:35.591Z,99.90
2019-03-16T08:52:02.984Z,99.90
2019-03-16T08:54:30.810Z,99.90
2019-03-16T08:57:17.619Z,99.90
2019-03-16T08:59:58.168Z,99.90
2019-03-16T09:02:25.521Z,99.90
2019-03-16T09:04:53.020Z,99.90
2019-03-16T09:07:39.900Z,99.90
2019-03-16T09:10:07.404Z,99.90
2019-03-16T09:12:35.021Z,99.90
2019-03-16T09:15:02.523Z,99.90
2019-03-16T09:17:49.385Z,99.90
2019-03-16T09:20:16.891Z,99.90
2019-03-16T09:23:03.756Z,99.90
2019-03-16T09:25:31.058Z,99.90
2019-03-16T09:27:59.098Z,99.90
2019-03-16T09:30:26.542Z,99.90
2019-03-16T09:32:57.131Z,99.90
2019-03-16T09:35:24.624Z,99.90
2019-03-16T09:38:11.566Z,99.90
2019-03-16T09:41:17.891Z,99.90
2019-03-16T09:43:45.294Z,99.90
2019-03-16T09:46:12.909Z,99.90
2019-03-16T09:48:41.243Z,99.90
2019-03-16T09:51:08.666Z,99.90
2019-03-16T09:53:36.080Z,99.90
2019-03-16T09:56:05.099Z,99.90
2019-03-16T09:58:32.849Z,99.90
2019-03-16T10:01:00.277Z,99.90
2019-03-16T10:03:27.766Z,99.90
2019-03-16T10:05:58.601Z,99.90
2019-03-16T10:08:45.982Z,99.90
2019-03-16T10:11:14.945Z,99.90
2019-03-16T10:13:42.427Z,99.90
2019-03-16T10:16:09.840Z,99.90
2019-03-16T10:18:37.222Z,99.90
2019-03-16T10:21:04.755Z,99.90
2019-03-16T10:23:32.152Z,99.90
2019-03-16T10:25:59.482Z,99.90
2019-03-16T10:28:26.999Z,99.90
2019-03-16T10:30:54.491Z,99.90
2019-03-16T10:33:21.933Z,99.90
2019-03-16T10:35:49.359Z,99.90
2019-03-16T10:38:16.734Z,99.90
2019-03-16T10:40:44.245Z,99.90
2019-03-16T10:43:11.705Z,99.90
2019-03-16T10:45:39.278Z,99.90
2019-03-16T10:48:06.945Z,99.90
2019-03-16T10:50:34.412Z,99.90
2019-03-16T10:53:02.018Z,99.90
2019-03-16T10:55:36.173Z,99.90
2019-03-16T10:58:03.963Z,99.90
2019-03-16T11:00:31.303Z,99.90
2019-03-16T11:02:58.819Z,99.90
2019-03-16T11:05:26.472Z,99.90
2019-03-16T11:07:53.847Z,99.90
2019-03-16T11:10:23.920Z,99.90
2019-03-16T11:12:51.783Z,99.90
2019-03-16T11:15:19.285Z,99.40
2019-03-16T11:17:50.263Z,99.70
2019-03-16T11:20:17.817Z,99.40
2019-03-16T11:22:45.265Z,99.60
2019-03-16T11:25:12.693Z,99.40
2019-03-16T11:27:40.159Z,99.50
2019-03-16T11:30:11.632Z,99.60
2019-03-16T11:32:42.458Z,99.60
2019-03-16T11:35:10.057Z,99.60
2019-03-16T11:37:46.547Z,99.00
2019-03-16T11:40:33.716Z,99.70
2019-03-16T11:43:22.159Z,99.20
2019-03-16T11:45:49.518Z,99.20
2019-03-16T11:48:36.440Z,99.10
2019-03-16T11:51:05.670Z,99.50
2019-03-16T11:53:33.096Z,99.00
2019-03-16T11:56:00.590Z,99.50
2019-03-16T11:58:31.107Z,99.30
2019-03-16T12:00:58.942Z,99.00
2019-03-16T12:03:26.420Z,99.30
2019-03-16T12:06:13.401Z,98.90
2019-03-16T12:08:40.900Z,98.60
2019-03-16T12:11:08.298Z,98.30
2019-03-16T12:13:55.177Z,97.80
2019-03-16T12:16:22.956Z,98.10
2019-03-16T12:18:50.576Z,98.40
2019-03-16T12:21:37.430Z,98.40
2019-03-16T12:24:13.425Z,98.20
2019-03-16T12:26:41.058Z,98.50
2019-03-16T12:29:09.040Z,98.60
2019-03-16T12:31:36.495Z,98.80
2019-03-16T12:34:04.145Z,98.70
2019-03-16T12:36:31.585Z,99.00
2019-03-16T12:39:08.769Z,98.80
2019-03-16T12:41:36.201Z,99.00
2019-03-16T12:44:03.587Z,98.80
2019-03-16T12:46:31.217Z,98.90
2019-03-16T12:49:18.059Z,98.60
2019-03-16T12:51:45.636Z,98.70
2019-03-16T12:54:13.152Z,98.80
2019-03-16T12:56:40.670Z,98.60
2019-03-16T12:59:10.741Z,98.60
2019-03-16T13:01:58.764Z,98.60
2019-03-16T13:04:28.862Z,98.40
2019-03-16T13:06:56.386Z,98.40
2019-03-16T13:09:30.896Z,98.40
2019-03-16T13:11:58.396Z,98.10
2019-03-16T13:14:26.057Z,98.30
2019-03-16T13:17:13.103Z,98.50
2019-03-16T13:19:50.070Z,98.00
2019-03-16T13:22:19.071Z,97.70
2019-03-16T13:25:06.336Z,97.60
2019-03-16T13:27:33.940Z,97.60
2019-03-16T13:30:21.006Z,97.90
2019-03-16T13:32:55.359Z,97.70
2019-03-16T13:35:22.765Z,97.80
2019-03-16T13:37:50.143Z,97.50
2019-03-16T13:40:37.081Z,97.50
2019-03-16T13:43:04.608Z,97.40
2019-03-16T13:45:32.108Z,97.50
2019-03-16T13:48:18.952Z,97.60
2019-03-16T13:50:46.429Z,97.30
2019-03-16T13:53:14.098Z,97.40
2019-03-16T13:55:41.620Z,97.10
2019-03-16T13:58:28.479Z,97.20
2019-03-16T14:01:08.951Z,97.30
2019-03-16T14:03:37.818Z,97.20
2019-03-16T14:06:05.402Z,97.40
2019-03-16T14:08:52.186Z,97.30
2019-03-16T14:11:19.739Z,97.00
2019-03-16T14:14:06.542Z,97.20
2019-03-16T14:16:34.003Z,96.90
2019-03-16T14:19:01.561Z,97.20
2019-03-16T14:21:29.002Z,97.80
2019-03-16T14:23:56.487Z,97.30
2019-03-16T14:26:24.104Z,97.60
2019-03-16T14:29:11.026Z,97.40
2019-03-16T14:34:24.914Z,97.20
2019-03-16T14:36:52.436Z,97.40
2019-03-16T14:39:19.855Z,97.20
2019-03-16T14:41:47.402Z,97.40
2019-03-16T14:44:14.912Z,97.40
2019-03-16T14:46:42.246Z,97.20
2019-03-16T14:49:09.819Z,97.20
2019-03-16T14:51:56.866Z,97.40
2019-03-16T14:54:36.859Z,97.20
2019-03-16T14:57:04.833Z,97.00
2019-03-16T14:59:32.357Z,96.80
2019-03-16T15:01:59.859Z,96.90
2019-03-16T15:04:27.371Z,96.70
2019-03-16T15:06:54.805Z,96.50
2019-03-16T15:09:22.139Z,96.80
2019-03-16T15:11:49.543Z,96.50
2019-03-16T15:14:21.850Z,96.70
2019-03-16T15:16:46.345Z,96.30
2019-03-16T15:19:13.729Z,96.70
2019-03-16T15:21:41.511Z,96.40
2019-03-16T15:24:11.941Z,96.40
2019-03-16T15:26:39.502Z,96.40
2019-03-16T15:29:07.011Z,96.40
2019-03-16T15:31:34.779Z,96.20
2019-03-16T15:34:02.312Z,96.10
2019-03-16T15:36:29.854Z,96.60
2019-03-16T15:38:57.583Z,95.80
2019-03-16T15:41:25.228Z,96.20
2019-03-16T15:43:52.834Z,96.00
2019-03-16T15:46:20.362Z,95.80
2019-03-16T15:48:48.162Z,96.10
2019-03-16T15:51:15.861Z,95.80
2019-03-16T15:53:44.539Z,95.90
2019-03-16T15:56:13.295Z,96.00
2019-03-16T15:58:43.747Z,96.10
2019-03-16T16:01:11.233Z,95.90
2019-03-16T16:03:38.547Z,95.70
2019-03-16T16:06:05.904Z,95.60
2019-03-16T16:08:33.817Z,95.80
2019-03-16T16:11:20.683Z,95.70
2019-03-16T16:16:32.680Z,95.30
2019-03-16T16:19:00.239Z,95.80
2019-03-16T16:21:27.564Z,95.70
2019-03-16T16:23:55.218Z,95.50
2019-03-16T16:26:22.601Z,95.20
2019-03-16T16:28:50.038Z,95.90
2019-03-16T16:31:17.779Z,95.40
2019-03-16T16:33:45.178Z,95.20
2019-03-16T16:36:12.591Z,95.30
2019-03-16T16:38:53.328Z,95.50
2019-03-16T16:41:20.837Z,95.30
2019-03-16T16:43:49.545Z,95.60
2019-03-16T16:46:36.384Z,95.50
2019-03-16T16:49:03.878Z,95.00
2019-03-16T16:51:31.312Z,94.90
2019-03-16T16:53:58.872Z,95.40
2019-03-16T16:56:26.199Z,94.80
2019-03-16T16:58:53.575Z,94.80
2019-03-16T17:01:29.414Z,94.60
2019-03-16T17:03:50.328Z,94.70
2019-03-16T17:06:17.639Z,94.40
2019-03-16T17:08:45.285Z,94.60
2019-03-16T17:11:32.309Z,94.30
2019-03-16T17:14:19.322Z,94.50
2019-03-16T17:17:06.475Z,94.70
2019-03-16T17:19:33.867Z,94.30
2019-03-16T17:22:01.434Z,94.70
2019-03-16T17:24:34.615Z,94.60
2019-03-16T17:27:02.411Z,94.70
2019-03-16T17:29:29.786Z,94.60
2019-03-16T17:31:57.480Z,94.90
2019-03-16T17:34:24.898Z,95.20
2019-03-16T17:36:52.520Z,95.00
2019-03-16T17:39:20.144Z,95.00
2019-03-16T17:41:47.618Z,94.90
2019-03-16T17:44:15.274Z,95.10
2019-03-16T17:46:42.778Z,94.90
2019-03-16T17:49:10.071Z,95.30
2019-03-16T17:51:37.381Z,95.50
2019-03-16T17:54:24.171Z,95.60
2019-03-16T17:56:51.595Z,95.50
2019-03-16T17:59:19.042Z,95.70
2019-03-16T18:02:05.806Z,95.70
2019-03-16T18:04:33.137Z,95.80
2019-03-16T18:07:00.478Z,95.90
2019-03-16T18:09:27.919Z,95.90
2019-03-16T18:11:55.264Z,95.90
2019-03-16T18:14:22.551Z,96.20
2019-03-16T18:16:50.050Z,96.30
2019-03-16T18:19:17.442Z,96.20
2019-03-16T18:21:44.848Z,96.20
2019-03-16T18:24:12.184Z,96.20
2019-03-16T18:26:39.537Z,96.10
2019-03-16T18:29:26.406Z,96.10
2019-03-16T18:34:38.891Z,96.00
2019-03-16T18:37:26.872Z,96.20
2019-03-16T18:39:54.191Z,96.00
2019-03-16T18:42:21.561Z,96.20
2019-03-16T18:45:09.674Z,96.20
2019-03-16T18:47:37.309Z,96.30
2019-03-16T18:50:04.907Z,96.30
2019-03-16T18:52:32.544Z,96.30
2019-03-16T18:54:59.904Z,96.30
2019-03-16T18:57:27.325Z,96.40
2019-03-16T18:59:54.720Z,96.40
2019-03-16T19:02:22.056Z,96.50
2019-03-16T19:04:49.526Z,96.50
2019-03-16T19:07:17.166Z,96.40
2019-03-16T19:09:44.644Z,96.50
2019-03-16T19:12:11.932Z,96.60
2019-03-16T19:14:39.308Z,96.50
2019-03-16T19:17:26.216Z,96.40
2019-03-16T19:20:13.482Z,96.40
2019-03-16T19:22:40.760Z,96.50
2019-03-16T19:25:10.026Z,96.60
2019-03-16T19:27:37.366Z,96.60
2019-03-16T19:30:24.282Z,96.60
2019-03-16T19:32:51.589Z,96.60
2019-03-16T19:35:19.036Z,97.00
2019-03-16T19:37:46.480Z,96.40
2019-03-16T19:40:14.236Z,96.40
2019-03-16T19:42:41.695Z,96.40
2019-03-16T19:45:09.139Z,96.70
2019-03-16T19:47:36.583Z,96.60
2019-03-16T19:50:23.527Z,96.40
2019-03-16T19:52:51.050Z,96.50
2019-03-16T19:55:37.872Z,96.60
2019-03-16T19:58:05.503Z,96.50
2019-03-16T20:00:33.039Z,96.60
2019-03-16T20:03:00.494Z,96.50
2019-03-16T20:05:27.848Z,96.70
2019-03-16T20:07:55.171Z,96.70
2019-03-16T20:10:22.725Z,96.70
2019-03-16T20:12:52.914Z,96.70
2019-03-16T20:15:19.760Z,96.50
2019-03-16T20:17:47.200Z,96.60
2019-03-16T20:20:14.784Z,96.60
2019-03-16T20:22:42.118Z,96.50
2019-03-16T20:25:12.482Z,96.50
2019-03-16T20:27:39.901Z,96.50
2019-03-16T20:30:07.850Z,96.30
2019-03-16T20:32:42.215Z,96.30
2019-03-16T20:35:09.752Z,96.10
2019-03-16T20:37:37.374Z,96.20
2019-03-16T20:40:06.212Z,96.10
2019-03-16T20:42:33.683Z,96.20
2019-03-16T20:45:20.663Z,96.00
2019-03-16T20:47:48.322Z,95.80
2019-03-16T20:50:15.701Z,95.90
2019-03-16T20:53:02.448Z,95.90
2019-03-16T20:55:29.879Z,95.80
2019-03-16T20:57:57.413Z,95.90
2019-03-16T21:00:44.335Z,95.90
2019-03-16T21:03:16.365Z,95.80
2019-03-16T21:06:00.476Z,95.90
2019-03-16T21:08:28.928Z,95.80
2019-03-16T21:10:56.417Z,96.00
2019-03-16T21:13:23.871Z,96.10
2019-03-16T21:16:10.795Z,96.00
2019-03-16T21:18:38.121Z,95.60
2019-03-16T21:21:05.626Z,95.80
2019-03-16T21:23:33.144Z,95.20
2019-03-16T21:26:19.959Z,95.00
2019-03-16T21:28:47.290Z,95.20
2019-03-16T21:31:36.269Z,95.20
2019-03-16T21:34:03.776Z,95.20
2019-03-16T21:36:40.849Z,95.10
2019-03-16T21:39:06.561Z,95.10
2019-03-16T21:41:33.941Z,94.90
2019-03-16T21:44:01.315Z,94.50
2019-03-16T21:46:28.638Z,95.00
2019-03-16T21:48:56.040Z,94.50
2019-03-16T21:51:42.931Z,94.70
2019-03-16T21:54:10.343Z,94.10
2019-03-16T21:56:37.905Z,94.40
2019-03-16T21:59:26.458Z,94.50
2019-03-16T22:01:54.072Z,94.00
2019-03-16T22:04:40.873Z,94.40
2019-03-16T22:07:08.892Z,94.30
2019-03-16T22:09:36.537Z,94.10
2019-03-16T22:12:03.908Z,94.40
2019-03-16T22:14:31.302Z,94.60
2019-03-16T22:16:59.199Z,94.40
2019-03-16T22:19:32.584Z,94.20
2019-03-16T22:22:06.530Z,94.30
2019-03-16T22:24:53.420Z,94.40
2019-03-16T22:27:20.724Z,94.30
2019-03-16T22:29:48.382Z,94.70
2019-03-16T22:32:15.868Z,94.40
2019-03-16T22:34:43.364Z,94.40
2019-03-16T22:37:10.714Z,94.50
2019-03-16T22:39:38.172Z,94.60
2019-03-16T22:42:05.595Z,94.60
2019-03-16T22:44:32.911Z,94.90
2019-03-16T22:47:00.244Z,94.70
2019-03-16T22:49:27.651Z,94.60
2019-03-16T22:51:54.960Z,94.60
2019-03-16T22:54:22.372Z,94.70
2019-03-16T22:57:09.165Z,94.50
2019-03-16T22:59:36.646Z,94.80
2019-03-16T23:02:03.951Z,94.60
2019-03-16T23:04:31.358Z,94.50
2019-03-16T23:06:58.888Z,94.40
2019-03-16T23:09:26.326Z,94.60
2019-03-16T23:11:53.754Z,94.50
2019-03-16T23:14:21.113Z,94.70
2019-03-16T23:16:48.420Z,94.50
2019-03-16T23:19:15.974Z,94.70
2019-03-16T23:21:43.424Z,94.30
2019-03-16T23:24:10.934Z,94.50
2019-03-16T23:26:57.848Z,94.40
2019-03-16T23:29:44.698Z,94.20
2019-03-16T23:32:12.057Z,94.10
2019-03-16T23:34:39.508Z,94.40
2019-03-16T23:37:06.799Z,93.90
2019-03-16T23:39:34.223Z,94.00
2019-03-16T23:42:01.507Z,94.70
2019-03-16T23:44:28.844Z,95.10
2019-03-16T23:46:56.269Z,95.30
2019-03-16T23:49:26.711Z,95.40
2019-03-16T23:52:13.522Z,95.30
2019-03-16T23:54:40.964Z,95.40
2019-03-16T23:57:11.436Z,95.30
2019-03-16T23:59:41.639Z,95.50
